San Antonio, Texas
Traffic Map
Current Weather Conditions
San Antonio, Texas
Overcast Light Rain
Overcast
13°
Feels Like: 13°
Wind Chill: 13° Ceiling: 600
Heat Index: 13° Visibility: 9mi
Dew Point: 13° Wind: 9mph
Humidity: 100% Direction: 10° (N)
Pressure: 30.02in Gusts: 0mph
Raw Report DataKSKF 190708Z AUTO 01008KT 9SM -RA BKN006 OVC012 13/13 A3002 RMK AO2 CIG 006V011 BKN V SCT $
Traffic Incident Summary
Active as of:
Severity:
Category:
InformationThere was an issue retrieving the traffic information for this location. Please try a different location or try again shortly.
Advertisements
Track Severe Weather on mobile